createdAt,value
2023-05-24T00:01:58.814Z,100924.28
2023-05-24T00:04:30.454Z,100991.34
2023-05-24T00:07:03.329Z,100933.41
2023-05-24T00:09:31.230Z,100990.97
2023-05-24T00:11:59.359Z,100990.38
2023-05-24T00:14:27.176Z,100932.69
2023-05-24T00:16:55.093Z,100973.09
2023-05-24T00:19:23.146Z,101006.06
2023-05-24T00:21:51.245Z,100982.28
2023-05-24T00:24:20.737Z,101007.09
2023-05-24T00:26:48.560Z,100968.09
2023-05-24T00:29:16.394Z,101000.91
2023-05-24T00:31:44.252Z,101002.00
2023-05-24T00:34:12.267Z,100995.63
2023-05-24T00:36:40.136Z,100995.50
2023-05-24T00:39:09.897Z,100994.63
2023-05-24T00:41:39.251Z,100887.97
2023-05-24T00:44:07.152Z,100966.28
2023-05-24T00:46:35.945Z,100918.75
2023-05-24T00:49:04.923Z,100973.31
2023-05-24T00:51:33.943Z,100841.22
2023-05-24T00:54:02.010Z,100982.97
2023-05-24T00:56:30.031Z,100981.25
2023-05-24T00:58:59.396Z,100977.78
2023-05-24T01:01:31.158Z,100978.63
2023-05-24T01:04:00.233Z,100953.16
2023-05-24T01:06:29.060Z,100976.03
2023-05-24T01:09:14.853Z,100946.91
2023-05-24T01:11:59.373Z,100969.84
2023-05-24T01:14:36.737Z,100975.28
2023-05-24T01:17:09.497Z,100941.75
2023-05-24T01:19:57.549Z,100960.41
2023-05-24T01:22:39.578Z,100967.47
2023-05-24T01:25:14.188Z,100967.41
2023-05-24T01:27:44.617Z,100972.81
2023-05-24T01:30:14.705Z,100965.06
2023-05-24T01:32:43.239Z,100970.31
2023-05-24T01:35:11.223Z,100959.72
2023-05-24T01:37:39.031Z,100964.13
2023-05-24T01:40:10.188Z,100966.03
2023-05-24T01:42:45.921Z,100963.41
2023-05-24T01:45:20.820Z,100963.44
2023-05-24T01:47:59.346Z,100964.34
2023-05-24T01:50:32.535Z,100945.75
2023-05-24T01:53:04.987Z,100953.63
2023-05-24T01:55:34.561Z,100954.44
2023-05-24T01:58:05.625Z,100946.63
2023-05-24T02:00:34.658Z,100917.97
2023-05-24T02:03:03.378Z,100933.78
2023-05-24T02:05:33.400Z,100946.91
2023-05-24T02:08:06.849Z,100941.56
2023-05-24T02:10:34.699Z,100942.44
2023-05-24T02:13:03.941Z,100944.19
2023-05-24T02:15:31.795Z,100939.06
2023-05-24T02:18:01.457Z,100917.84
2023-05-24T02:20:31.360Z,100935.38
2023-05-24T02:23:00.660Z,100930.19
2023-05-24T02:25:29.167Z,100915.09
2023-05-24T02:27:57.062Z,100932.03
2023-05-24T02:30:26.721Z,100876.34
2023-05-24T02:32:54.687Z,100934.44
2023-05-24T02:35:22.774Z,100935.56
2023-05-24T02:37:50.569Z,100905.41
2023-05-24T02:40:18.631Z,100939.81
2023-05-24T02:42:46.469Z,100939.78
2023-05-24T02:45:14.296Z,100943.13
2023-05-24T02:47:43.738Z,100936.34
2023-05-24T02:50:12.092Z,100931.72
2023-05-24T02:52:39.967Z,100890.31
2023-05-24T02:55:09.070Z,100936.00
2023-05-24T02:57:37.881Z,100940.44
2023-05-24T03:00:09.306Z,100932.50
2023-05-24T03:02:38.830Z,100931.34
2023-05-24T03:05:09.070Z,100933.06
2023-05-24T03:07:36.986Z,100934.94
2023-05-24T03:10:05.183Z,100936.53
2023-05-24T03:12:33.081Z,100927.81
2023-05-24T03:15:00.951Z,100931.25
2023-05-24T03:17:28.983Z,100934.56
2023-05-24T03:19:56.851Z,100938.94
2023-05-24T03:22:26.208Z,100926.69
2023-05-24T03:24:54.036Z,100940.13
2023-05-24T03:27:21.890Z,100909.75
2023-05-24T03:29:49.925Z,100945.84
2023-05-24T03:32:19.947Z,100940.50
2023-05-24T03:34:48.046Z,100942.50
2023-05-24T03:37:16.120Z,100944.13
2023-05-24T03:39:47.431Z,100901.78
2023-05-24T03:42:32.446Z,100943.22
2023-05-24T03:45:00.413Z,100934.53
2023-05-24T03:47:28.386Z,100939.81
2023-05-24T03:49:56.185Z,100938.28
2023-05-24T03:52:24.581Z,100909.94
2023-05-24T03:54:53.846Z,100933.81
2023-05-24T03:57:22.036Z,100946.69
2023-05-24T03:59:49.996Z,100940.56
2023-05-24T04:02:17.896Z,100936.25
2023-05-24T04:04:46.326Z,100942.50
2023-05-24T04:07:15.557Z,100913.41
2023-05-24T04:09:43.765Z,100923.16
2023-05-24T04:12:13.716Z,100944.31
2023-05-24T04:14:42.894Z,100938.03
2023-05-24T04:17:10.890Z,100940.19
2023-05-24T04:19:38.803Z,100938.09
2023-05-24T04:22:06.625Z,100945.03
2023-05-24T04:24:37.832Z,100938.41
2023-05-24T04:27:06.145Z,100936.56
2023-05-24T04:29:35.531Z,100920.59
2023-05-24T04:32:03.452Z,100936.47
2023-05-24T04:34:33.862Z,100919.72
2023-05-24T04:37:02.084Z,100912.53
2023-05-24T04:39:31.278Z,100909.38
2023-05-24T04:42:00.647Z,100937.59
2023-05-24T04:44:28.658Z,100939.97
2023-05-24T04:46:58.283Z,100935.88
2023-05-24T04:49:26.364Z,100944.47
2023-05-24T04:51:55.280Z,100930.44
2023-05-24T04:54:23.248Z,100917.91
2023-05-24T04:56:51.555Z,100940.75
2023-05-24T04:59:19.391Z,100952.00
2023-05-24T05:01:47.334Z,100960.53
2023-05-24T05:04:16.677Z,100948.16
2023-05-24T05:06:44.801Z,100954.25
2023-05-24T05:09:13.899Z,100949.34
2023-05-24T05:11:42.044Z,100957.44
2023-05-24T05:14:10.104Z,100956.88
2023-05-24T05:16:38.364Z,100926.00
2023-05-24T05:19:06.672Z,100962.78
2023-05-24T05:21:36.747Z,100965.69
2023-05-24T05:24:04.836Z,100967.50
2023-05-24T05:26:32.864Z,100969.19
2023-05-24T05:29:00.886Z,100958.34
2023-05-24T05:31:28.782Z,100961.00
2023-05-24T05:33:56.654Z,100945.97
2023-05-24T05:36:24.518Z,100699.06
2023-05-24T05:38:54.601Z,100974.06
2023-05-24T05:41:22.558Z,100971.13
2023-05-24T05:43:50.397Z,100969.06
2023-05-24T05:46:21.037Z,100854.25
2023-05-24T05:48:49.240Z,100968.88
2023-05-24T05:51:17.173Z,100968.63
2023-05-24T05:53:45.119Z,100968.00
2023-05-24T05:56:14.326Z,100972.63
2023-05-24T05:58:42.186Z,100907.66
2023-05-24T06:01:09.985Z,100949.81
2023-05-24T06:03:38.076Z,100975.19
2023-05-24T06:06:06.248Z,100973.06
2023-05-24T06:08:35.153Z,100973.50
2023-05-24T06:11:03.829Z,100944.31
2023-05-24T06:13:33.170Z,100950.19
2023-05-24T06:16:01.269Z,100949.81
2023-05-24T06:18:30.548Z,100976.63
2023-05-24T06:20:58.547Z,100983.72
2023-05-24T06:23:26.469Z,100980.50
2023-05-24T06:25:54.661Z,100973.09
2023-05-24T06:28:22.713Z,100978.00
2023-05-24T06:30:51.989Z,100976.03
2023-05-24T06:33:19.953Z,100950.31
2023-05-24T06:35:47.855Z,100983.03
2023-05-24T06:38:16.105Z,100976.56
2023-05-24T06:40:44.188Z,100975.06
2023-05-24T06:43:12.221Z,100978.81
2023-05-24T06:45:41.934Z,100969.22
2023-05-24T06:48:11.427Z,100985.47
2023-05-24T06:50:42.331Z,100975.34
2023-05-24T06:53:10.815Z,100978.78
2023-05-24T06:55:38.650Z,100991.94
2023-05-24T06:58:07.104Z,100990.66
2023-05-24T07:00:35.135Z,100991.88
2023-05-24T07:03:03.137Z,100998.84
2023-05-24T07:05:32.445Z,101002.19
2023-05-24T07:08:00.381Z,101001.13
2023-05-24T07:10:28.283Z,100975.25
2023-05-24T07:12:56.097Z,101002.53
2023-05-24T07:15:24.209Z,100999.13
2023-05-24T07:17:52.869Z,101001.00
2023-05-24T07:20:20.897Z,100954.63
2023-05-24T07:22:50.109Z,100995.00
2023-05-24T07:25:18.006Z,101002.59
2023-05-24T07:27:45.811Z,101005.41
2023-05-24T07:30:27.754Z,100999.22
2023-05-24T07:32:59.387Z,100937.59
2023-05-24T07:35:28.629Z,100945.53
2023-05-24T07:37:57.920Z,101005.53
2023-05-24T07:40:26.810Z,101005.88
2023-05-24T07:42:54.655Z,101006.53
2023-05-24T07:45:23.359Z,101004.22
2023-05-24T07:47:51.199Z,100971.97
2023-05-24T07:50:19.796Z,100924.81
2023-05-24T07:52:47.660Z,100996.84
2023-05-24T07:55:16.900Z,101000.88
2023-05-24T07:57:44.678Z,101014.53
2023-05-24T08:00:14.648Z,101011.63
2023-05-24T08:02:43.145Z,101009.00
2023-05-24T08:05:12.956Z,101009.97
2023-05-24T08:07:41.719Z,101002.34
2023-05-24T08:10:12.736Z,101015.09
2023-05-24T08:12:42.217Z,101000.47
2023-05-24T08:15:10.876Z,101004.56
2023-05-24T08:17:39.649Z,100988.84
2023-05-24T08:20:09.706Z,100998.97
2023-05-24T08:22:38.284Z,100995.28
2023-05-24T08:25:07.425Z,101000.22
2023-05-24T08:27:35.285Z,100969.22
2023-05-24T08:30:04.995Z,100942.88
2023-05-24T08:32:33.284Z,101008.06
2023-05-24T08:35:14.827Z,101010.06
2023-05-24T08:37:47.417Z,100990.94
2023-05-24T08:40:15.361Z,101005.91
2023-05-24T08:42:43.380Z,101009.22
2023-05-24T08:45:14.538Z,100990.41
2023-05-24T08:47:43.672Z,100985.94
2023-05-24T08:50:11.990Z,101008.59
2023-05-24T08:52:41.410Z,101019.88
2023-05-24T08:55:10.614Z,101030.88
2023-05-24T08:57:41.760Z,101000.38
2023-05-24T09:00:12.748Z,100987.09
2023-05-24T09:02:46.276Z,101038.84
2023-05-24T09:05:16.886Z,101038.22
2023-05-24T09:07:46.365Z,101018.28
2023-05-24T09:10:14.251Z,101038.16
2023-05-24T09:12:46.554Z,101029.91
2023-05-24T09:15:14.422Z,101033.03
2023-05-24T09:17:44.290Z,101038.31
2023-05-24T09:20:13.977Z,101049.25
2023-05-24T09:22:43.822Z,101034.81
2023-05-24T09:25:14.662Z,101036.00
2023-05-24T09:27:42.511Z,101039.13
2023-05-24T09:30:12.942Z,101037.69
2023-05-24T09:32:41.454Z,101025.91
2023-05-24T09:35:11.312Z,101043.75
2023-05-24T09:37:40.453Z,101016.50
2023-05-24T09:40:18.558Z,101048.56
2023-05-24T09:42:46.550Z,101054.16
2023-05-24T09:45:14.447Z,101047.44
2023-05-24T09:47:43.557Z,101048.25
2023-05-24T09:50:15.896Z,101042.81
2023-05-24T09:52:44.462Z,101043.91
2023-05-24T09:55:13.680Z,101043.69
2023-05-24T09:57:41.645Z,101042.72
2023-05-24T10:00:17.445Z,101047.50
2023-05-24T10:02:53.447Z,101039.63
2023-05-24T10:05:24.500Z,101036.06
2023-05-24T10:07:53.337Z,101040.22
2023-05-24T10:10:21.421Z,101046.81
2023-05-24T10:12:51.065Z,101045.91
2023-05-24T10:15:19.059Z,101049.34
2023-05-24T10:17:46.972Z,101055.47
2023-05-24T10:20:15.466Z,101055.38
2023-05-24T10:22:47.259Z,101024.81
2023-05-24T10:25:21.852Z,101059.34
2023-05-24T10:27:51.819Z,101053.38
2023-05-24T10:30:27.949Z,101065.84
2023-05-24T10:32:56.996Z,100950.69
2023-05-24T10:35:26.889Z,101050.81
2023-05-24T10:37:57.407Z,101068.25
2023-05-24T10:40:26.660Z,101009.13
2023-05-24T10:42:55.326Z,101048.31
2023-05-24T10:45:35.655Z,101064.53
2023-05-24T10:48:11.305Z,101055.47
2023-05-24T10:50:39.466Z,101065.56
2023-05-24T10:53:14.232Z,101067.97
2023-05-24T10:55:54.250Z,101063.34
2023-05-24T10:58:30.533Z,101063.84
2023-05-24T11:00:58.521Z,101047.22
2023-05-24T11:03:26.478Z,101068.03
2023-05-24T11:05:56.801Z,101077.88
2023-05-24T11:08:27.520Z,101072.03
2023-05-24T11:11:23.103Z,101073.84
2023-05-24T11:13:57.400Z,101081.47
2023-05-24T11:16:37.215Z,101054.59
2023-05-24T11:19:19.273Z,101057.00
2023-05-24T11:21:48.636Z,101080.50
2023-05-24T11:24:19.333Z,101066.22
2023-05-24T11:26:47.636Z,101073.28
2023-05-24T11:29:17.783Z,101066.44
2023-05-24T11:31:50.725Z,101076.28
2023-05-24T11:34:18.753Z,101080.81
2023-05-24T11:36:47.216Z,101079.34
2023-05-24T11:39:16.157Z,101086.00
2023-05-24T11:41:45.909Z,101080.53
2023-05-24T11:44:19.011Z,101073.19
2023-05-24T11:46:48.103Z,101082.63
2023-05-24T11:49:17.130Z,101080.69
2023-05-24T11:51:45.408Z,101084.09
2023-05-24T11:54:13.267Z,101014.63
2023-05-24T11:56:41.118Z,101078.50
2023-05-24T11:59:16.868Z,101072.78
2023-05-24T12:01:45.431Z,100941.75
2023-05-24T12:04:13.553Z,101079.88
2023-05-24T12:06:43.632Z,101074.28
2023-05-24T12:09:14.291Z,101058.13
2023-05-24T12:11:43.485Z,101065.19
2023-05-24T12:14:17.872Z,101061.25
2023-05-24T12:16:47.234Z,101072.25
2023-05-24T12:19:31.744Z,101062.03
2023-05-24T12:22:02.227Z,101074.28
2023-05-24T12:24:32.481Z,101026.69
2023-05-24T12:27:02.896Z,101068.56
2023-05-24T12:29:36.426Z,101054.28
2023-05-24T12:32:05.192Z,101069.38
2023-05-24T12:34:33.712Z,101069.72
2023-05-24T12:37:01.688Z,101067.66
2023-05-24T12:39:31.779Z,101077.03
2023-05-24T12:42:01.767Z,101082.41
2023-05-24T12:44:31.398Z,101082.94
2023-05-24T12:47:02.462Z,101076.66
2023-05-24T12:49:30.786Z,101059.19
2023-05-24T12:51:58.697Z,101084.25
2023-05-24T12:54:28.469Z,101068.56
2023-05-24T12:56:59.728Z,101077.50
2023-05-24T12:59:28.424Z,101072.50
2023-05-24T13:01:56.891Z,101073.03
2023-05-24T13:04:27.091Z,101080.22
2023-05-24T13:06:55.499Z,101082.84
2023-05-24T13:09:24.124Z,101075.41
2023-05-24T13:11:52.712Z,101079.47
2023-05-24T13:14:20.908Z,101076.72
2023-05-24T13:16:49.115Z,101075.94
2023-05-24T13:19:17.298Z,101071.00
2023-05-24T13:21:46.720Z,101067.69
2023-05-24T13:24:16.711Z,101075.03
2023-05-24T13:26:44.693Z,101063.84
2023-05-24T13:31:43.997Z,101047.06
2023-05-24T13:34:12.210Z,101061.72
2023-05-24T13:36:40.354Z,101066.81
2023-05-24T13:39:16.126Z,101055.53
2023-05-24T13:41:45.281Z,101069.44
2023-05-24T13:44:13.854Z,101079.41
2023-05-24T13:46:42.538Z,101071.34
2023-05-24T13:49:11.210Z,101051.81
2023-05-24T13:51:40.070Z,101073.00
2023-05-24T13:54:09.535Z,101068.44
2023-05-24T13:56:38.627Z,101045.19
2023-05-24T13:59:07.649Z,101055.53
2023-05-24T14:01:37.454Z,101018.47
2023-05-24T14:04:06.482Z,101054.91
2023-05-24T14:06:37.453Z,101050.09
2023-05-24T14:09:07.026Z,101041.00
2023-05-24T14:11:36.668Z,101053.78
2023-05-24T14:14:35.895Z,101051.97
2023-05-24T14:16:55.007Z,101057.38
2023-05-24T14:19:23.050Z,101054.25
2023-05-24T14:21:50.984Z,101062.41
2023-05-24T14:24:18.866Z,101069.50
2023-05-24T14:26:48.413Z,101072.72
2023-05-24T14:29:16.318Z,101073.34
2023-05-24T14:31:44.337Z,101070.84
2023-05-24T14:34:12.785Z,101067.41
2023-05-24T14:36:41.731Z,101064.03
2023-05-24T14:39:09.594Z,101061.69
2023-05-24T14:41:37.686Z,101069.97
2023-05-24T14:44:06.951Z,101058.56
2023-05-24T14:46:35.078Z,101067.81
2023-05-24T14:49:03.568Z,101068.19
2023-05-24T14:51:31.408Z,101071.28
2023-05-24T14:53:59.550Z,101054.53
2023-05-24T14:56:27.441Z,101060.25
2023-05-24T14:58:55.413Z,101063.69
2023-05-24T15:01:24.690Z,101063.63
2023-05-24T15:03:52.564Z,101053.13
2023-05-24T15:06:20.403Z,101065.78
2023-05-24T15:08:48.409Z,101052.66
2023-05-24T15:11:17.626Z,101071.91
2023-05-24T15:13:45.471Z,101066.03
2023-05-24T15:16:13.283Z,101082.69
2023-05-24T15:18:42.609Z,101040.19
2023-05-24T15:21:10.583Z,101077.72
2023-05-24T15:23:39.671Z,101076.56
2023-05-24T15:26:08.180Z,101073.75
2023-05-24T15:28:36.083Z,101079.38
2023-05-24T15:31:04.427Z,101074.38
2023-05-24T15:33:32.673Z,101073.50
2023-05-24T15:36:01.968Z,101077.00
2023-05-24T15:38:29.773Z,101074.66
2023-05-24T15:40:57.718Z,101075.38
2023-05-24T15:43:25.526Z,101073.44
2023-05-24T15:45:53.643Z,101071.00
2023-05-24T15:48:22.628Z,101068.28
2023-05-24T15:51:16.491Z,101067.25
2023-05-24T15:53:39.790Z,101071.81
2023-05-24T15:56:08.014Z,101072.13
2023-05-24T15:58:35.940Z,101034.50
2023-05-24T16:01:03.890Z,101066.06
2023-05-24T16:03:31.932Z,101067.72
2023-05-24T16:05:59.966Z,101068.63
2023-05-24T16:08:29.030Z,101074.88
2023-05-24T16:10:58.436Z,101079.69
2023-05-24T16:13:26.394Z,101052.47
2023-05-24T16:15:54.263Z,101072.75
2023-05-24T16:18:23.598Z,101055.22
2023-05-24T16:20:52.517Z,101062.72
2023-05-24T16:23:22.821Z,101064.75
2023-05-24T16:25:51.076Z,101068.31
2023-05-24T16:28:23.981Z,101069.72
2023-05-24T16:30:55.740Z,101072.66
2023-05-24T16:33:24.249Z,100971.03
2023-05-24T16:35:55.581Z,101069.97
2023-05-24T16:38:24.016Z,101063.41
2023-05-24T16:40:51.965Z,101059.66
2023-05-24T16:43:21.512Z,101059.31
2023-05-24T16:45:49.870Z,101065.78
2023-05-24T16:48:18.268Z,101065.78
2023-05-24T16:50:46.381Z,101038.91
2023-05-24T16:53:14.161Z,101058.22
2023-05-24T16:55:42.284Z,101031.66
2023-05-24T16:58:10.250Z,101052.63
2023-05-24T17:00:39.494Z,101058.69
2023-05-24T17:03:07.963Z,101059.22
2023-05-24T17:05:35.919Z,101036.09
2023-05-24T17:08:03.775Z,101040.81
2023-05-24T17:10:31.694Z,101052.78
2023-05-24T17:12:59.802Z,101051.00
2023-05-24T17:15:27.634Z,101054.94
2023-05-24T17:17:57.521Z,101045.00
2023-05-24T17:20:25.420Z,101039.75
2023-05-24T17:22:55.405Z,101058.28
2023-05-24T17:25:23.311Z,101058.28
2023-05-24T17:27:51.451Z,101051.97
2023-05-24T17:30:19.857Z,101045.88
2023-05-24T17:32:47.693Z,101059.28
2023-05-24T17:35:17.046Z,101058.91
2023-05-24T17:37:44.924Z,101055.34
2023-05-24T17:40:13.219Z,101006.41
2023-05-24T17:42:42.331Z,101053.16
2023-05-24T17:45:11.327Z,101057.28
2023-05-24T17:47:39.236Z,101055.44
2023-05-24T17:50:08.898Z,101056.53
2023-05-24T17:52:38.205Z,101041.03
2023-05-24T17:55:07.278Z,101048.88
2023-05-24T17:57:35.278Z,101062.84
2023-05-24T18:00:03.136Z,101059.13
2023-05-24T18:02:30.981Z,101056.69
2023-05-24T18:04:58.932Z,101033.13
2023-05-24T18:07:28.385Z,101063.91
2023-05-24T18:10:00.220Z,101065.19
2023-05-24T18:12:28.568Z,101030.22
2023-05-24T18:14:56.502Z,101068.44
2023-05-24T18:17:24.541Z,101071.28
2023-05-24T18:19:52.504Z,101070.38
2023-05-24T18:22:21.085Z,101069.66
2023-05-24T18:24:48.933Z,101044.09
2023-05-24T18:27:18.096Z,101070.88
2023-05-24T18:29:45.957Z,101075.53
2023-05-24T18:32:13.792Z,101047.94
2023-05-24T18:34:41.693Z,101083.75
2023-05-24T18:37:09.535Z,101086.50
2023-05-24T18:39:37.446Z,101087.75
2023-05-24T18:42:05.915Z,101089.72
2023-05-24T18:44:37.812Z,101090.91
2023-05-24T18:47:06.101Z,101058.47
2023-05-24T18:49:34.132Z,101075.94
2023-05-24T18:52:03.764Z,101094.50
2023-05-24T18:54:31.691Z,101090.25
2023-05-24T18:57:02.338Z,101093.38
2023-05-24T18:59:31.581Z,101092.13
2023-05-24T19:02:01.240Z,101095.75
2023-05-24T19:04:29.651Z,101100.78
2023-05-24T19:06:57.639Z,101105.28
2023-05-24T19:09:26.025Z,101080.66
2023-05-24T19:11:53.854Z,101100.28
2023-05-24T19:14:22.168Z,101052.97
2023-05-24T19:16:50.094Z,101113.44
2023-05-24T19:19:19.250Z,101109.41
2023-05-24T19:21:48.075Z,101107.41
2023-05-24T19:24:15.946Z,101121.38
2023-05-24T19:26:43.800Z,101118.00
2023-05-24T19:29:11.624Z,101116.56
2023-05-24T19:31:39.466Z,101066.53
2023-05-24T19:34:07.321Z,101114.03
2023-05-24T19:36:37.122Z,101122.13
2023-05-24T19:39:05.228Z,101122.34
2023-05-24T19:41:33.152Z,101126.03
2023-05-24T19:44:00.968Z,101126.97
2023-05-24T19:46:29.291Z,101124.63
2023-05-24T19:48:57.154Z,101131.91
2023-05-24T19:51:25.012Z,101132.31
2023-05-24T19:53:54.494Z,101134.97
2023-05-24T19:56:23.507Z,101133.31
2023-05-24T19:58:52.238Z,101140.47
2023-05-24T20:01:20.165Z,101146.09
2023-05-24T20:03:49.522Z,101142.69
2023-05-24T20:06:17.924Z,101136.03
2023-05-24T20:08:47.090Z,101142.34
2023-05-24T20:11:16.295Z,101147.72
2023-05-24T20:13:44.129Z,101150.41
2023-05-24T20:16:12.064Z,101148.50
2023-05-24T20:18:39.910Z,101155.97
2023-05-24T20:21:07.850Z,101160.28
2023-05-24T20:23:35.965Z,101157.78
2023-05-24T20:26:04.007Z,101037.69
2023-05-24T20:28:33.283Z,101117.72
2023-05-24T20:31:01.237Z,101161.88
2023-05-24T20:33:29.228Z,101164.63
2023-05-24T20:35:57.075Z,101157.06
2023-05-24T20:38:24.992Z,101171.25
2023-05-24T20:40:52.848Z,101161.47
2023-05-24T20:43:20.688Z,101121.47
2023-05-24T20:45:49.954Z,101166.47
2023-05-24T20:48:17.981Z,101173.94
2023-05-24T20:50:45.849Z,101171.50
2023-05-24T20:53:13.698Z,101163.69
2023-05-24T20:55:41.733Z,101173.69
2023-05-24T20:58:10.103Z,101171.50
2023-05-24T21:00:39.854Z,101170.88
2023-05-24T21:03:10.005Z,101178.59
2023-05-24T21:05:40.014Z,101183.16
2023-05-24T21:08:07.840Z,101184.16
2023-05-24T21:10:37.930Z,101182.56
2023-05-24T21:13:05.887Z,101193.47
2023-05-24T21:15:33.732Z,101194.59
2023-05-24T21:18:01.661Z,101193.19
2023-05-24T21:20:30.959Z,101185.19
2023-05-24T21:22:58.858Z,101195.09
2023-05-24T21:25:26.737Z,101171.78
2023-05-24T21:27:54.674Z,101198.53
2023-05-24T21:30:22.590Z,101210.97
2023-05-24T21:32:50.486Z,101211.38
2023-05-24T21:35:18.283Z,101215.38
2023-05-24T21:37:47.602Z,101207.75
2023-05-24T21:40:15.488Z,101225.25
2023-05-24T21:42:44.248Z,101216.16
2023-05-24T21:45:12.746Z,101213.22
2023-05-24T21:47:40.641Z,101222.28
2023-05-24T21:50:11.316Z,101233.41
2023-05-24T21:52:39.431Z,101236.19
2023-05-24T21:55:10.164Z,101165.72
2023-05-24T21:57:38.013Z,101235.69
2023-05-24T22:00:06.532Z,101235.59
2023-05-24T22:02:34.955Z,101241.00
2023-05-24T22:05:05.246Z,101241.06
2023-05-24T22:07:33.164Z,101246.00
2023-05-24T22:10:00.969Z,101245.22
2023-05-24T22:12:30.368Z,101244.41
2023-05-24T22:14:58.214Z,101250.63
2023-05-24T22:17:26.703Z,101246.22
2023-05-24T22:19:54.667Z,101257.91
2023-05-24T22:22:22.764Z,101259.69
2023-05-24T22:24:51.056Z,101259.00
2023-05-24T22:27:18.908Z,101262.00
2023-05-24T22:29:48.500Z,101259.44
2023-05-24T22:32:16.497Z,101251.59
2023-05-24T22:34:44.356Z,101202.31
2023-05-24T22:37:12.195Z,101229.41
2023-05-24T22:39:40.392Z,101265.78
2023-05-24T22:42:08.266Z,101209.47
2023-05-24T22:44:36.080Z,101171.47
2023-05-24T22:47:05.823Z,101260.41
2023-05-24T22:49:34.055Z,101180.16
2023-05-24T22:52:02.344Z,101261.09
2023-05-24T22:54:30.217Z,101263.75
2023-05-24T22:56:58.103Z,101259.44
2023-05-24T22:59:25.993Z,101265.38
2023-05-24T23:01:53.919Z,101264.56
2023-05-24T23:04:23.288Z,101263.13
2023-05-24T23:06:52.663Z,101264.28
2023-05-24T23:09:34.057Z,101260.00
2023-05-24T23:12:02.437Z,101236.47
2023-05-24T23:14:31.408Z,101264.28
2023-05-24T23:17:02.725Z,101258.47
2023-05-24T23:19:32.660Z,101267.41
2023-05-24T23:22:00.480Z,101269.16
2023-05-24T23:24:28.352Z,101262.19
2023-05-24T23:26:57.071Z,101254.31
2023-05-24T23:29:24.935Z,101257.94
2023-05-24T23:31:52.859Z,101264.31
2023-05-24T23:34:20.729Z,101256.56
2023-05-24T23:36:49.938Z,101259.34
2023-05-24T23:39:18.163Z,101244.78
2023-05-24T23:41:46.005Z,101265.78
2023-05-24T23:44:13.841Z,101255.28
2023-05-24T23:46:42.023Z,101257.56
2023-05-24T23:49:10.000Z,101260.34
2023-05-24T23:51:37.873Z,101251.41
2023-05-24T23:54:07.303Z,101257.94
2023-05-24T23:56:35.252Z,101259.81
2023-05-24T23:59:03.141Z,101263.38
